Time;durP1;ratioP1;P1;durP2;ratioP2;P2;SDS_P1;SDS_P2;PMS_P1;PMS_P2;Temp;Humidity;BMP_temperature;BMP_pressure;BME280_temperature;BME280_humidity;BME280_pressure;Samples;Min_cycle;Max_cycle;Signal;HPM_P1;HPM_P2
2024/01/28 00:00:22;;;;;;;11.63;6.47;;;;;;;2.47;88.31;99749.44;4244461;27;20251;-81
2024/01/28 00:02:26;;;;;;;9.13;6.22;;;;;;;2.45;88.10;99759.75;4233383;27;20582;-80
2024/01/28 00:04:29;;;;;;;9.10;6.43;;;;;;;2.45;88.36;99753.72;4252470;27;20921;-80
2024/01/28 00:06:32;;;;;;;9.40;6.32;;;;;;;2.42;88.62;99746.91;4232753;27;20627;-80
2024/01/28 00:08:37;;;;;;;14.23;6.55;;;;;;;2.40;88.65;99748.63;4252976;27;20627;-80
2024/01/28 00:10:41;;;;;;;11.20;7.05;;;;;;;2.40;88.45;99751.22;4238345;27;20226;-80
2024/01/28 00:12:43;;;;;;;9.50;6.60;;;;;;;2.40;88.86;99753.78;4237707;27;20258;-80
2024/01/28 00:14:46;;;;;;;10.10;6.80;;;;;;;2.39;88.74;99749.53;4251022;27;20203;-80
2024/01/28 00:16:49;;;;;;;11.85;7.40;;;;;;;2.39;88.93;99748.66;4249735;27;20199;-79
2024/01/28 00:18:57;;;;;;;10.13;6.82;;;;;;;2.37;88.24;99753.81;4231283;27;20897;-80
2024/01/28 00:21:01;;;;;;;15.02;7.25;;;;;;;2.36;88.60;99746.97;4231403;27;20911;-80
2024/01/28 00:23:04;;;;;;;11.13;7.90;;;;;;;2.33;88.79;99745.28;4233328;27;20228;-80
2024/01/28 00:25:09;;;;;;;13.05;7.70;;;;;;;2.31;88.41;99747.03;4231729;27;20488;-80
2024/01/28 00:27:12;;;;;;;9.82;6.88;;;;;;;2.32;89.02;99744.44;4233122;27;20318;-80
2024/01/28 00:29:16;;;;;;;11.77;6.25;;;;;;;2.33;89.01;99747.88;4238180;27;20226;-80
2024/01/28 00:31:18;;;;;;;9.40;6.75;;;;;;;2.33;89.21;99740.16;4233429;27;20341;-80
2024/01/28 00:33:22;;;;;;;11.88;6.00;;;;;;;2.36;89.11;99743.53;4237683;27;20219;-79
2024/01/28 00:35:25;;;;;;;11.25;7.13;;;;;;;2.37;88.94;99740.09;4211740;28;20276;-80
2024/01/28 00:37:28;;;;;;;8.75;5.80;;;;;;;2.35;88.71;99737.53;4239262;27;20361;-80
2024/01/28 00:39:32;;;;;;;12.98;7.05;;;;;;;2.32;88.30;99733.31;4231008;27;20200;-80
2024/01/28 00:41:37;;;;;;;10.50;6.55;;;;;;;2.31;88.35;99734.16;4236443;27;20241;-80
2024/01/28 00:43:40;;;;;;;10.65;6.20;;;;;;;2.29;88.24;99730.78;4248524;27;20242;-80
2024/01/28 00:45:42;;;;;;;9.93;6.50;;;;;;;2.28;88.50;99731.63;4230170;27;20673;-80
2024/01/28 00:47:45;;;;;;;15.50;7.70;;;;;;;2.31;88.83;99726.44;4233885;27;20294;-80
2024/01/28 00:49:49;;;;;;;8.80;5.80;;;;;;;2.31;88.70;99726.44;4249407;27;20292;-80
2024/01/28 00:51:52;;;;;;;12.35;6.32;;;;;;;2.29;88.78;99723.88;4232923;27;20227;-81
2024/01/28 00:53:56;;;;;;;10.35;6.53;;;;;;;2.31;89.04;99723.88;4220509;28;20204;-80
2024/01/28 00:55:58;;;;;;;10.38;6.30;;;;;;;2.30;88.65;99717.88;4254078;27;20206;-81
2024/01/28 00:58:03;;;;;;;10.32;6.88;;;;;;;2.29;88.55;99712.75;4251330;27;20256;-81
2024/01/28 01:00:07;;;;;;;14.40;6.45;;;;;;;2.29;88.29;99716.16;4216908;28;20208;-79
2024/01/28 01:02:10;;;;;;;13.38;7.10;;;;;;;2.29;88.32;99717.91;4235576;27;20213;-80
2024/01/28 01:04:13;;;;;;;9.63;6.25;;;;;;;2.25;88.25;99722.19;4234033;27;20211;-80
2024/01/28 01:06:17;;;;;;;9.77;6.28;;;;;;;2.24;88.49;99717.06;4216541;28;20227;-80
2024/01/28 01:08:20;;;;;;;10.60;6.55;;;;;;;2.24;88.39;99715.38;4236479;27;21070;-80
2024/01/28 01:10:25;;;;;;;12.30;7.45;;;;;;;2.24;88.65;99710.22;4247998;27;20217;-79
2024/01/28 01:12:29;;;;;;;9.18;6.22;;;;;;;2.20;88.20;99711.13;4220594;28;20207;-80
2024/01/28 01:14:37;;;;;;;12.73;6.70;;;;;;;2.19;88.16;99717.13;4236543;27;20681;-80
2024/01/28 01:16:40;;;;;;;9.07;6.13;;;;;;;2.19;88.37;99700.84;4214015;28;20566;-80
2024/01/28 01:18:43;;;;;;;11.52;5.57;;;;;;;2.16;88.27;99706.00;4249185;27;20210;-80
2024/01/28 01:20:46;;;;;;;9.30;6.07;;;;;;;2.14;88.30;99702.59;4231812;27;20207;-80
2024/01/28 01:22:50;;;;;;;10.60;5.75;;;;;;;2.09;88.42;99701.78;4251447;27;20226;-80
2024/01/28 01:24:53;;;;;;;9.70;6.15;;;;;;;2.09;88.47;99689.78;4233286;27;20198;-80
2024/01/28 01:26:56;;;;;;;12.82;6.40;;;;;;;2.10;88.76;99693.19;4255002;27;20195;-79
2024/01/28 01:28:59;;;;;;;8.38;5.80;;;;;;;2.09;88.85;99696.63;4250087;27;20199;-80
2024/01/28 01:31:04;;;;;;;10.32;5.97;;;;;;;2.12;88.52;99691.47;4253279;27;20711;-80
2024/01/28 01:33:06;;;;;;;11.02;6.05;;;;;;;2.12;88.78;99683.75;4256547;27;20758;-79
2024/01/28 01:35:12;;;;;;;9.88;6.05;;;;;;;2.09;87.93;99681.19;4236644;27;20236;-82
2024/01/28 01:37:17;;;;;;;8.70;5.28;;;;;;;2.07;88.21;99678.63;4253787;27;20659;-82
2024/01/28 01:39:21;;;;;;;10.40;5.80;;;;;;;2.05;88.40;99672.66;4238084;27;20850;-82
2024/01/28 01:41:23;;;;;;;9.68;5.90;;;;;;;2.05;88.35;99670.09;4235763;27;20789;-82
2024/01/28 01:43:26;;;;;;;10.75;6.15;;;;;;;2.10;87.91;99682.91;4239420;27;20221;-82
2024/01/28 01:45:28;;;;;;;11.65;6.40;;;;;;;2.08;88.93;99682.09;4250035;27;20219;-82
2024/01/28 01:47:33;;;;;;;8.63;5.70;;;;;;;2.09;89.03;99682.06;4222114;27;20246;-82
2024/01/28 01:49:35;;;;;;;9.18;5.65;;;;;;;2.10;89.40;99686.31;4254311;27;20203;-82
2024/01/28 01:51:39;;;;;;;8.23;6.05;;;;;;;2.10;88.84;99680.34;4252961;27;20660;-82
2024/01/28 01:53:44;;;;;;;10.38;5.93;;;;;;;2.07;88.87;99680.38;4255880;27;20250;-82
2024/01/28 01:55:48;;;;;;;10.00;6.22;;;;;;;2.05;88.47;99682.13;4251831;27;20246;-82
2024/01/28 01:57:51;;;;;;;8.45;5.93;;;;;;;2.04;88.60;99686.38;4241355;27;20237;-82
2024/01/28 01:59:54;;;;;;;11.63;6.43;;;;;;;2.03;88.34;99681.25;4251684;27;20680;-83
2024/01/28 02:01:57;;;;;;;16.67;8.38;;;;;;;2.01;88.39;99677.84;4236703;27;20204;-83
2024/01/28 02:04:02;;;;;;;12.90;7.40;;;;;;;1.96;87.67;99672.75;4232235;27;20199;-82
2024/01/28 02:06:07;;;;;;;13.10;7.13;;;;;;;1.94;87.85;99676.22;4233897;27;20329;-83
2024/01/28 02:08:10;;;;;;;11.30;6.75;;;;;;;1.93;87.71;99680.50;4228670;27;20616;-82
2024/01/28 02:10:14;;;;;;;10.48;5.93;;;;;;;1.94;87.65;99678.78;4249578;27;20198;-82
2024/01/28 02:12:17;;;;;;;9.60;6.55;;;;;;;1.90;87.69;99677.94;4234479;27;20716;-82
2024/01/28 02:14:21;;;;;;;13.40;6.40;;;;;;;1.90;88.00;99679.69;4239448;27;20207;-82
2024/01/28 02:16:25;;;;;;;11.50;6.38;;;;;;;1.89;87.94;99676.28;4254168;27;20660;-82
2024/01/28 02:18:29;;;;;;;12.75;6.93;;;;;;;1.91;87.82;99678.81;4237535;27;20215;-82
2024/01/28 02:20:34;;;;;;;9.95;5.13;;;;;;;1.92;88.42;99673.66;4255480;27;20611;-82
2024/01/28 02:22:38;;;;;;;9.40;5.80;;;;;;;1.91;88.36;99668.53;4236383;27;20693;-82
2024/01/28 02:24:42;;;;;;;10.13;5.80;;;;;;;1.90;88.30;99672.81;4238244;27;20313;-82
2024/01/28 02:26:46;;;;;;;11.68;6.05;;;;;;;1.90;88.55;99669.41;4239748;27;20302;-83
2024/01/28 02:28:50;;;;;;;12.38;6.30;;;;;;;1.89;87.80;99662.53;4239040;27;20270;-82
2024/01/28 02:30:53;;;;;;;14.68;6.18;;;;;;;1.88;87.69;99659.13;4251469;27;20247;-82
2024/01/28 02:32:57;;;;;;;11.82;6.90;;;;;;;1.88;87.94;99655.72;4253726;27;20277;-82
2024/01/28 02:35:06;;;;;;;12.45;5.88;;;;;;;1.90;87.99;99666.81;4239191;27;20708;-82
2024/01/28 02:37:10;;;;;;;12.77;5.80;;;;;;;1.89;88.57;99665.09;4234749;27;20192;-82
2024/01/28 02:39:14;;;;;;;8.30;5.60;;;;;;;1.87;88.38;99656.56;4231556;27;20207;-82
2024/01/28 02:41:18;;;;;;;11.70;5.60;;;;;;;1.84;88.09;99659.16;4235340;27;20207;-82
2024/01/28 02:43:21;;;;;;;9.90;5.88;;;;;;;1.85;88.42;99660.88;4248013;27;20231;-79
2024/01/28 02:45:25;;;;;;;10.73;5.55;;;;;;;1.82;88.22;99658.34;4237509;27;20203;-82
2024/01/28 02:47:29;;;;;;;11.65;6.15;;;;;;;1.79;88.07;99665.19;4241784;27;20294;-83
2024/01/28 02:49:32;;;;;;;8.65;5.80;;;;;;;1.80;88.43;99659.19;4237823;27;21382;-82
2024/01/28 02:51:36;;;;;;;9.00;5.63;;;;;;;1.79;88.05;99654.91;4249844;27;20199;-82
2024/01/28 02:53:39;;;;;;;9.57;6.00;;;;;;;1.76;87.59;99655.81;4235378;27;20207;-83
2024/01/28 02:55:42;;;;;;;9.55;5.85;;;;;;;1.73;87.56;99658.41;4234617;27;20259;-83
2024/01/28 02:57:47;;;;;;;9.65;5.72;;;;;;;1.71;88.15;99649.00;4247958;27;21011;-82
2024/01/28 02:59:50;;;;;;;8.15;5.35;;;;;;;1.67;87.90;99655.91;4220601;27;20362;-82
2024/01/28 03:01:54;;;;;;;11.55;6.90;;;;;;;1.69;88.30;99649.00;4239096;27;20208;-82
2024/01/28 03:03:57;;;;;;;8.65;5.43;;;;;;;1.67;88.17;99645.63;4238068;27;20295;-82
2024/01/28 03:06:01;;;;;;;9.93;5.88;;;;;;;1.67;88.15;99650.75;4224534;27;20211;-82
2024/01/28 03:08:06;;;;;;;9.95;5.60;;;;;;;1.67;87.62;99648.19;4241688;27;20204;-82
2024/01/28 03:10:10;;;;;;;7.93;5.65;;;;;;;1.63;87.64;99646.50;4221677;27;20234;-82
2024/01/28 03:12:19;;;;;;;7.90;5.30;;;;;;;1.63;87.86;99641.34;4234225;27;20638;-82
2024/01/28 03:14:26;;;;;;;10.55;5.25;;;;;;;1.63;88.06;99641.34;4255174;27;20205;-82
2024/01/28 03:16:29;;;;;;;9.20;5.35;;;;;;;1.62;87.85;99639.63;4237402;27;20204;-83
2024/01/28 03:18:33;;;;;;;8.57;5.32;;;;;;;1.61;87.37;99640.53;4233665;27;20207;-82
2024/01/28 03:20:37;;;;;;;8.23;5.40;;;;;;;1.58;88.24;99645.69;4253896;27;20289;-82
2024/01/28 03:22:40;;;;;;;7.18;5.30;;;;;;;1.61;87.77;99637.94;4239155;27;20219;-83
2024/01/28 03:24:43;;;;;;;8.75;4.85;;;;;;;1.62;87.61;99639.63;4240265;27;20234;-82
2024/01/28 03:26:47;;;;;;;8.85;4.50;;;;;;;1.57;87.05;99631.13;4236650;27;20725;-82
2024/01/28 03:28:51;;;;;;;10.40;4.80;;;;;;;1.54;87.43;99631.16;4222580;27;20215;-82
2024/01/28 03:30:55;;;;;;;12.18;4.85;;;;;;;1.53;87.28;99624.31;4236763;27;20211;-81
2024/01/28 03:32:59;;;;;;;12.48;5.10;;;;;;;1.55;87.77;99632.03;4225172;27;20215;-82
2024/01/28 03:35:05;;;;;;;11.95;5.15;;;;;;;1.54;88.19;99620.03;4234037;27;20249;-82
2024/01/28 03:37:08;;;;;;;8.05;4.65;;;;;;;1.55;87.87;99616.59;4236340;27;20235;-82
2024/01/28 03:39:14;;;;;;;9.55;5.35;;;;;;;1.57;88.29;99610.56;4238872;27;20595;-82
2024/01/28 03:41:18;;;;;;;10.35;5.07;;;;;;;1.52;87.52;99607.19;4254015;27;20215;-83
2024/01/28 03:43:22;;;;;;;6.93;5.00;;;;;;;1.54;88.74;99613.16;4237009;27;20768;-82
2024/01/28 03:45:25;;;;;;;7.00;4.95;;;;;;;1.56;88.50;99613.16;4235254;27;20196;-82
2024/01/28 03:47:29;;;;;;;9.55;5.30;;;;;;;1.57;88.03;99620.00;4236730;27;20724;-82
2024/01/28 03:49:32;;;;;;;8.40;4.85;;;;;;;1.54;88.16;99620.88;4239272;27;20200;-82
2024/01/28 03:51:36;;;;;;;7.80;4.60;;;;;;;1.52;88.02;99622.59;4226136;27;20230;-82
2024/01/28 03:53:39;;;;;;;10.00;5.50;;;;;;;1.51;87.83;99613.19;4240002;27;20227;-82
2024/01/28 03:55:43;;;;;;;9.63;5.35;;;;;;;1.52;88.07;99620.03;4256132;27;20674;-82
2024/01/28 03:57:47;;;;;;;7.13;4.38;;;;;;;1.52;88.58;99612.31;4235372;27;20261;-82
2024/01/28 03:59:50;;;;;;;6.22;4.55;;;;;;;1.51;88.85;99610.63;4219614;27;20200;-81
2024/01/28 04:01:54;;;;;;;8.95;5.13;;;;;;;1.52;88.48;99625.19;4236621;27;20245;-82
2024/01/28 04:03:58;;;;;;;9.05;5.30;;;;;;;1.52;87.71;99612.31;4237215;27;20192;-81
2024/01/28 04:06:02;;;;;;;8.32;4.35;;;;;;;1.54;87.94;99614.88;4235890;27;20290;-82
2024/01/28 04:08:09;;;;;;;7.63;5.15;;;;;;;1.53;87.61;99620.88;4252262;27;20630;-82
2024/01/28 04:10:14;;;;;;;8.05;4.82;;;;;;;1.49;87.56;99619.22;4237173;27;20704;-82
2024/01/28 04:12:17;;;;;;;8.60;4.60;;;;;;;1.49;87.76;99616.66;4257036;27;20191;-82
2024/01/28 04:14:20;;;;;;;10.18;5.07;;;;;;;1.47;87.53;99616.66;4240107;27;20242;-82
2024/01/28 04:16:23;;;;;;;6.90;4.30;;;;;;;1.46;87.72;99617.50;4236889;27;20218;-82
2024/01/28 04:18:27;;;;;;;8.40;4.88;;;;;;;1.49;88.00;99617.50;4236304;27;20268;-82
2024/01/28 04:20:32;;;;;;;7.68;4.97;;;;;;;1.49;87.52;99617.50;4251389;27;20563;-82
2024/01/28 04:22:36;;;;;;;8.88;4.63;;;;;;;1.45;87.70;99615.81;4241596;27;20231;-82
2024/01/28 04:24:39;;;;;;;8.65;4.60;;;;;;;1.43;87.51;99616.69;4235772;27;20198;-82
2024/01/28 04:26:43;;;;;;;7.55;4.57;;;;;;;1.40;87.01;99620.13;4225842;27;20305;-82
2024/01/28 04:28:46;;;;;;;9.20;4.70;;;;;;;1.40;87.58;99616.72;4254737;27;20231;-82
2024/01/28 04:30:48;;;;;;;11.55;4.93;;;;;;;1.37;87.17;99616.75;4214329;27;20201;-82
2024/01/28 04:32:52;;;;;;;6.75;4.93;;;;;;;1.36;87.38;99619.31;4234888;27;20227;-82
2024/01/28 04:34:55;;;;;;;6.45;4.18;;;;;;;1.36;88.17;99617.59;4239547;27;20199;-82
2024/01/28 04:36:59;;;;;;;7.93;4.75;;;;;;;1.37;87.61;99621.88;4255373;27;20228;-82
2024/01/28 04:39:03;;;;;;;10.38;4.47;;;;;;;1.39;88.33;99627.00;4256651;27;20281;-82
2024/01/28 04:41:06;;;;;;;8.90;4.90;;;;;;;1.37;88.13;99619.31;4251582;27;20273;-82
2024/01/28 04:43:08;;;;;;;8.95;4.70;;;;;;;1.39;87.52;99626.13;4238826;27;20598;-82
2024/01/28 04:45:12;;;;;;;7.63;5.03;;;;;;;1.38;88.04;99622.72;4224408;27;20204;-82
2024/01/28 04:47:18;;;;;;;5.97;4.18;;;;;;;1.37;87.39;99616.75;4235787;28;20203;-82
2024/01/28 04:49:21;;;;;;;6.95;4.55;;;;;;;1.39;87.62;99622.72;4246114;27;20284;-82
2024/01/28 04:51:24;;;;;;;6.65;4.50;;;;;;;1.38;86.74;99615.03;4233677;27;20203;-82
2024/01/28 04:53:29;;;;;;;8.40;4.10;;;;;;;1.35;87.04;99617.59;4238262;27;20306;-82
2024/01/28 04:55:32;;;;;;;7.35;4.20;;;;;;;1.35;87.37;99618.44;4235530;27;20290;-82
2024/01/28 04:57:35;;;;;;;9.18;4.70;;;;;;;1.34;87.68;99611.63;4224118;28;20199;-82
2024/01/28 04:59:38;;;;;;;7.07;4.60;;;;;;;1.26;85.99;99609.97;4250512;27;20210;-82
2024/01/28 05:01:41;;;;;;;8.15;4.85;;;;;;;1.19;86.04;99606.59;4229892;27;20682;-82
2024/01/28 05:03:43;;;;;;;7.55;4.78;;;;;;;1.14;86.57;99608.38;4238758;27;20199;-80
2024/01/28 05:05:47;;;;;;;8.90;5.20;;;;;;;1.13;86.68;99608.38;4235680;27;20208;-79
2024/01/28 05:07:50;;;;;;;7.55;4.75;;;;;;;1.11;86.50;99603.25;4254349;27;20939;-80
2024/01/28 05:09:55;;;;;;;7.93;4.90;;;;;;;1.12;87.17;99609.22;4234836;27;20660;-79
2024/01/28 05:11:59;;;;;;;7.07;4.88;;;;;;;1.13;87.17;99605.81;4234538;27;20234;-80
2024/01/28 05:14:04;;;;;;;7.47;4.63;;;;;;;1.15;87.59;99607.47;4242206;27;20640;-79
2024/01/28 05:16:07;;;;;;;7.47;4.50;;;;;;;1.17;88.23;99612.59;4252470;27;20192;-79
2024/01/28 05:18:09;;;;;;;6.88;4.63;;;;;;;1.20;87.50;99612.59;4231850;27;20281;-80
2024/01/28 05:20:14;;;;;;;8.80;4.20;;;;;;;1.22;88.28;99606.59;4216798;28;20195;-79
2024/01/28 05:22:19;;;;;;;9.80;4.90;;;;;;;1.26;88.25;99617.69;4254566;27;20218;-80
2024/01/28 05:24:22;;;;;;;8.35;4.03;;;;;;;1.28;87.93;99613.38;4218089;27;20201;-80
2024/01/28 05:26:27;;;;;;;8.32;4.65;;;;;;;1.30;87.87;99614.22;4259977;27;20565;-79
2024/01/28 05:28:30;;;;;;;7.82;5.40;;;;;;;1.30;88.54;99612.50;4224759;27;20214;-80
2024/01/28 05:30:33;;;;;;;5.65;4.30;;;;;;;1.25;87.40;99606.56;4251854;27;20210;-80
2024/01/28 05:32:36;;;;;;;6.90;4.15;;;;;;;1.23;86.82;99607.44;4239164;27;20615;-80
2024/01/28 05:34:40;;;;;;;6.80;4.30;;;;;;;1.20;87.13;99603.16;4240286;27;20671;-80
2024/01/28 05:36:43;;;;;;;8.07;4.40;;;;;;;1.18;86.65;99604.06;4239320;27;20653;-81
2024/01/28 05:38:46;;;;;;;8.80;4.63;;;;;;;1.17;86.85;99607.47;4223522;27;20262;-79
2024/01/28 05:40:49;;;;;;;8.10;4.85;;;;;;;1.14;87.67;99599.78;4241056;27;20253;-80
2024/01/28 05:42:54;;;;;;;8.02;4.85;;;;;;;1.14;87.28;99599.78;4257501;27;20644;-80
2024/01/28 05:44:56;;;;;;;7.25;4.82;;;;;;;1.17;87.86;99602.34;4238688;27;20192;-80
2024/01/28 05:46:59;;;;;;;6.97;4.25;;;;;;;1.18;88.47;99607.47;4240352;27;20658;-80
2024/01/28 05:49:02;;;;;;;10.00;4.20;;;;;;;1.19;87.87;99610.88;4243111;27;20256;-80
2024/01/28 05:51:06;;;;;;;10.93;4.10;;;;;;;1.21;88.28;99606.59;4233118;27;20227;-80
2024/01/28 05:53:09;;;;;;;8.68;4.57;;;;;;;1.18;87.96;99606.63;4256699;27;20754;-80
2024/01/28 05:55:12;;;;;;;8.65;4.45;;;;;;;1.12;86.69;99606.66;4251887;27;20228;-80
2024/01/28 05:57:15;;;;;;;6.63;4.18;;;;;;;1.08;86.76;99602.41;4237094;27;20208;-79
2024/01/28 05:59:20;;;;;;;7.85;4.55;;;;;;;1.03;86.50;99601.59;4240667;27;20210;-80
2024/01/28 06:01:24;;;;;;;5.38;3.90;;;;;;;1.01;86.26;99600.75;4260399;27;20218;-80
2024/01/28 06:03:27;;;;;;;6.35;4.05;;;;;;;1.03;86.62;99606.72;4246051;27;20213;-79
2024/01/28 06:05:30;;;;;;;8.82;5.15;;;;;;;1.06;86.51;99607.53;4244156;27;20786;-80
2024/01/28 06:07:33;;;;;;;8.00;5.63;;;;;;;1.10;87.04;99613.53;4244489;27;20211;-79
2024/01/28 06:09:36;;;;;;;10.35;6.90;;;;;;;1.11;88.29;99615.22;4254565;27;20206;-80
2024/01/28 06:11:40;;;;;;;9.50;8.50;;;;;;;1.11;88.34;99608.38;4250936;27;20611;-79
2024/01/28 06:13:43;;;;;;;10.77;7.28;;;;;;;1.10;87.76;99618.66;4236721;27;20264;-82
2024/01/28 06:15:46;;;;;;;9.80;4.90;;;;;;;1.06;87.28;99609.28;4238281;27;20207;-82
2024/01/28 06:17:50;;;;;;;6.25;4.80;;;;;;;1.03;87.84;99606.72;4225026;27;20253;-82
2024/01/28 06:19:53;;;;;;;8.02;4.30;;;;;;;1.03;88.09;99606.72;4254870;27;20203;-82
2024/01/28 06:22:00;;;;;;;7.05;4.40;;;;;;;1.00;87.65;99607.59;4223274;27;20216;-81
2024/01/28 06:24:03;;;;;;;7.18;3.95;;;;;;;0.97;87.21;99611.91;4239456;27;20738;-82
2024/01/28 06:26:07;;;;;;;8.73;4.50;;;;;;;0.95;87.25;99605.94;4252173;27;20286;-82
2024/01/28 06:28:11;;;;;;;6.53;5.00;;;;;;;0.91;87.85;99604.22;4238546;27;20199;-82
2024/01/28 06:30:14;;;;;;;8.15;5.07;;;;;;;0.95;87.49;99608.50;4221613;27;20274;-82
2024/01/28 06:32:21;;;;;;;5.97;4.45;;;;;;;0.98;88.48;99604.19;4249717;27;20258;-82
2024/01/28 06:34:24;;;;;;;5.95;4.45;;;;;;;1.03;88.06;99614.44;4258473;27;20231;-82
2024/01/28 06:36:27;;;;;;;9.95;4.80;;;;;;;1.04;88.31;99606.72;4238734;27;20211;-82
2024/01/28 06:38:31;;;;;;;10.30;4.22;;;;;;;1.07;88.29;99605.84;4257282;27;20213;-82
2024/01/28 06:40:34;;;;;;;8.40;4.10;;;;;;;1.10;88.25;99613.53;4215903;28;20805;-82
2024/01/28 06:42:37;;;;;;;8.75;4.43;;;;;;;1.10;88.18;99616.09;4226162;27;20200;-82
2024/01/28 06:44:41;;;;;;;5.30;3.97;;;;;;;1.10;88.25;99614.38;4223452;27;20220;-82
2024/01/28 06:46:44;;;;;;;8.65;4.85;;;;;;;1.10;88.15;99618.66;4258413;27;20198;-82
2024/01/28 06:48:49;;;;;;;8.50;4.90;;;;;;;1.06;88.04;99619.53;4222568;27;20287;-82
2024/01/28 06:50:52;;;;;;;9.02;5.10;;;;;;;1.02;86.81;99622.97;4235371;27;20200;-83
2024/01/28 06:52:58;;;;;;;7.30;4.25;;;;;;;0.99;87.06;99631.56;4244578;27;20214;-82
2024/01/28 06:55:01;;;;;;;8.70;4.55;;;;;;;0.98;86.63;99618.75;4238221;27;20294;-81
2024/01/28 06:57:05;;;;;;;6.90;3.83;;;;;;;0.93;86.75;99616.22;4217581;27;20201;-82
2024/01/28 06:59:08;;;;;;;6.13;4.38;;;;;;;0.97;86.98;99622.16;4238774;27;20800;-84
2024/01/28 07:01:12;;;;;;;5.95;4.35;;;;;;;0.98;86.89;99626.44;4236221;27;20702;-83
2024/01/28 07:03:15;;;;;;;5.45;4.00;;;;;;;0.98;86.65;99619.59;4253261;27;20202;-84
2024/01/28 07:05:20;;;;;;;9.93;4.78;;;;;;;0.99;87.31;99623.00;4236995;27;20898;-83
2024/01/28 07:07:23;;;;;;;9.20;4.93;;;;;;;1.02;87.05;99628.13;4244787;27;20211;-84
2024/01/28 07:09:27;;;;;;;8.77;5.28;;;;;;;1.02;87.19;99628.13;4256774;27;20206;-83
2024/01/28 07:11:30;;;;;;;7.47;4.70;;;;;;;1.04;87.81;99623.84;4222957;27;20284;-82
2024/01/28 07:13:33;;;;;;;8.18;3.95;;;;;;;1.07;87.89;99629.81;4234975;27;20216;-81
2024/01/28 07:15:36;;;;;;;8.63;5.10;;;;;;;1.10;87.82;99631.50;4229258;27;20234;-82
2024/01/28 07:17:40;;;;;;;6.95;4.35;;;;;;;1.14;87.48;99644.31;4251752;27;20685;-83
2024/01/28 07:19:43;;;;;;;10.00;5.05;;;;;;;1.20;87.20;99648.53;4256995;27;20210;-83
2024/01/28 07:21:48;;;;;;;9.82;4.50;;;;;;;1.27;86.87;99652.78;4258321;27;20321;-83
2024/01/28 07:23:51;;;;;;;7.65;4.20;;;;;;;1.32;85.94;99649.31;4250475;27;20289;-83
2024/01/28 07:25:55;;;;;;;8.70;4.95;;;;;;;1.42;85.40;99646.66;4256829;27;20218;-83
2024/01/28 07:27:58;;;;;;;9.32;5.72;;;;;;;1.50;85.51;99652.63;4256430;27;20202;-83
2024/01/28 07:30:01;;;;;;;12.20;6.13;;;;;;;1.63;85.52;99656.78;4251395;27;20198;-83
2024/01/28 07:32:05;;;;;;;10.60;7.38;;;;;;;1.74;85.21;99659.25;4222725;28;20204;-82
2024/01/28 07:34:08;;;;;;;17.58;10.20;;;;;;;1.83;85.18;99654.88;4241953;27;20218;-83
2024/01/28 07:36:12;;;;;;;9.63;7.20;;;;;;;1.90;85.65;99649.66;4250398;27;20191;-83
2024/01/28 07:38:16;;;;;;;9.35;6.25;;;;;;;1.97;85.94;99653.03;4220887;28;20628;-83
2024/01/28 07:40:19;;;;;;;8.45;5.80;;;;;;;2.02;85.40;99656.41;4237901;27;20200;-83
2024/01/28 07:42:22;;;;;;;14.38;8.00;;;;;;;2.09;84.53;99653.78;4234003;27;20301;-83
2024/01/28 07:44:25;;;;;;;16.73;9.45;;;;;;;2.16;85.58;99644.25;4234745;27;20254;-83
2024/01/28 07:46:28;;;;;;;12.40;7.13;;;;;;;2.27;85.26;99652.72;4221898;27;20626;-82
2024/01/28 07:48:31;;;;;;;12.98;8.73;;;;;;;2.37;84.90;99656.00;4224194;27;20264;-83
2024/01/28 07:50:34;;;;;;;12.98;9.02;;;;;;;2.46;84.66;99647.34;4235258;27;20263;-83
2024/01/28 07:52:38;;;;;;;11.00;7.93;;;;;;;2.58;85.37;99647.22;4224033;27;20700;-83
2024/01/28 07:54:42;;;;;;;15.70;9.95;;;;;;;2.71;84.49;99652.19;4251239;27;20222;-83
2024/01/28 07:56:45;;;;;;;11.63;8.15;;;;;;;2.82;84.54;99661.47;4233192;27;20767;-82
2024/01/28 07:58:49;;;;;;;11.77;7.93;;;;;;;2.91;83.45;99655.34;4238064;27;20228;-83
2024/01/28 08:00:51;;;;;;;20.05;14.43;;;;;;;3.04;84.19;99654.34;4238932;27;20207;-82
2024/01/28 08:02:54;;;;;;;28.30;18.60;;;;;;;3.14;84.24;99656.72;4241762;27;20203;-82
2024/01/28 08:04:59;;;;;;;15.90;13.00;;;;;;;3.25;83.65;99665.19;4252099;27;20202;-84
2024/01/28 08:07:02;;;;;;;10.77;8.05;;;;;;;3.32;82.29;99659.91;4238529;27;20211;-83
2024/01/28 08:09:05;;;;;;;10.25;7.63;;;;;;;3.36;82.24;99661.56;4241065;27;20680;-83
2024/01/28 08:11:10;;;;;;;9.95;6.57;;;;;;;3.47;82.36;99658.81;4243695;27;20200;-82
2024/01/28 08:13:13;;;;;;;13.15;7.90;;;;;;;3.60;83.13;99661.19;4228914;27;20231;-82
2024/01/28 08:15:17;;;;;;;16.27;11.00;;;;;;;3.70;82.29;99661.88;4238689;27;20203;-82
2024/01/28 08:17:20;;;;;;;13.07;7.22;;;;;;;3.78;83.02;99666.88;4233612;27;20235;-83
2024/01/28 08:19:24;;;;;;;9.07;7.13;;;;;;;3.84;81.82;99653.91;4217825;27;20261;-82
2024/01/28 08:21:27;;;;;;;8.45;6.38;;;;;;;3.92;82.42;99658.94;4236334;27;20242;-82
2024/01/28 08:23:33;;;;;;;10.20;5.82;;;;;;;3.98;82.45;99653.66;4249605;27;20226;-82
2024/01/28 08:25:36;;;;;;;14.90;7.38;;;;;;;4.07;82.71;99658.66;4233389;27;20552;-82
2024/01/28 08:27:41;;;;;;;11.65;8.18;;;;;;;4.14;81.72;99660.28;4253653;27;20789;-82
2024/01/28 08:29:44;;;;;;;11.07;6.05;;;;;;;4.21;80.95;99660.97;4236575;27;20301;-83
2024/01/28 08:31:47;;;;;;;13.80;7.65;;;;;;;4.26;81.58;99654.00;4233667;27;20204;-82
2024/01/28 08:33:50;;;;;;;15.30;10.35;;;;;;;4.36;82.51;99658.09;4237672;27;20290;-80
2024/01/28 08:35:53;;;;;;;13.15;11.70;;;;;;;4.36;82.34;99645.19;4232191;27;20204;-81
2024/01/28 08:37:56;;;;;;;11.65;10.40;;;;;;;4.47;81.68;99653.59;4231039;27;20208;-79
2024/01/28 08:39:59;;;;;;;16.02;11.35;;;;;;;4.55;82.86;99656.88;4222228;27;20914;-79
2024/01/28 08:42:03;;;;;;;15.40;12.30;;;;;;;4.62;81.24;99657.63;4240201;27;20736;-79
2024/01/28 08:44:07;;;;;;;17.10;14.43;;;;;;;4.72;81.43;99658.25;4245332;27;20291;-79
2024/01/28 08:46:11;;;;;;;13.02;11.18;;;;;;;4.77;80.52;99660.72;4232815;27;20223;-79
2024/01/28 08:48:14;;;;;;;12.25;8.77;;;;;;;4.81;80.94;99657.19;4233150;27;20688;-79
2024/01/28 08:50:18;;;;;;;9.30;8.27;;;;;;;4.89;80.85;99661.31;4239653;27;20234;-80
2024/01/28 08:52:21;;;;;;;9.40;6.85;;;;;;;4.88;79.69;99649.28;4253561;27;20209;-79
2024/01/28 08:54:25;;;;;;;9.48;7.90;;;;;;;4.93;80.53;99659.50;4256443;27;20210;-79
2024/01/28 08:56:28;;;;;;;13.43;9.40;;;;;;;4.93;80.77;99662.09;4230273;27;20704;-80
2024/01/28 08:58:31;;;;;;;9.07;7.45;;;;;;;4.98;80.37;99661.13;4232502;27;20293;-79
2024/01/28 09:00:36;;;;;;;10.57;6.80;;;;;;;5.06;81.77;99664.41;4233080;28;20609;-79
2024/01/28 09:02:38;;;;;;;12.88;9.63;;;;;;;5.13;81.02;99665.09;4228902;27;20206;-77
2024/01/28 09:04:42;;;;;;;13.90;11.65;;;;;;;5.21;81.45;99670.06;4240584;27;20212;-81
2024/01/28 09:06:45;;;;;;;11.20;8.45;;;;;;;5.33;82.28;99669.81;4219337;28;20226;-81
2024/01/28 09:08:48;;;;;;;15.10;8.82;;;;;;;5.34;80.82;99658.59;4251485;27;20215;-80
2024/01/28 09:10:51;;;;;;;11.20;8.00;;;;;;;5.34;82.26;99663.75;4225769;27;20256;-80
2024/01/28 09:12:55;;;;;;;10.82;7.75;;;;;;;5.42;81.79;99663.59;4253378;27;20211;-81
2024/01/28 09:14:58;;;;;;;12.90;10.93;;;;;;;5.54;81.77;99666.75;4236018;28;20697;-81
2024/01/28 09:17:02;;;;;;;17.65;12.65;;;;;;;5.56;81.07;99664.94;4233576;27;20192;-81
2024/01/28 09:19:05;;;;;;;12.32;9.75;;;;;;;5.63;81.47;99669.09;4249744;27;21183;-81
2024/01/28 09:21:08;;;;;;;12.48;10.13;;;;;;;5.74;81.14;99665.44;4232565;27;20207;-80
2024/01/28 09:23:11;;;;;;;15.20;11.35;;;;;;;5.81;81.12;99668.72;4226895;27;20322;-81
2024/01/28 09:25:14;;;;;;;13.63;10.43;;;;;;;5.80;81.21;99667.88;4233226;27;20207;-81
2024/01/28 09:27:17;;;;;;;12.73;10.70;;;;;;;5.87;80.86;99664.22;4227025;27;22320;-81
2024/01/28 09:29:21;;;;;;;10.27;7.72;;;;;;;5.92;80.09;99661.53;4219332;28;20678;-81
2024/01/28 09:31:24;;;;;;;9.15;7.25;;;;;;;5.96;80.30;99666.59;4254696;27;20957;-80
2024/01/28 09:33:29;;;;;;;9.52;7.68;;;;;;;5.99;80.54;99666.50;4234916;27;20212;-82
2024/01/28 09:35:32;;;;;;;10.25;7.90;;;;;;;6.02;81.23;99657.81;4251345;27;20300;-82
2024/01/28 09:37:36;;;;;;;15.20;13.27;;;;;;;6.11;81.23;99663.63;4240671;27;20212;-82
2024/01/28 09:39:39;;;;;;;13.02;8.85;;;;;;;6.17;80.96;99668.63;4236910;27;20197;-84
2024/01/28 09:41:44;;;;;;;12.23;8.70;;;;;;;6.21;80.87;99663.34;4222859;28;20213;-82
2024/01/28 09:43:47;;;;;;;15.95;9.30;;;;;;;6.27;80.38;99664.91;4233780;27;20199;-87